Portada
METAR-TAF:

METAR-TAF

Aeropuertos :

Aeropuerto de Zaragoza

Zaragoza, España

latitud: 41-40N, longitud: 001-01W, altitud: 263 m

Observación

El informe se hizo hace 37 minutos, a las 13:00 UTC
Viento 5 kt del noroeste, variando entre oeste-suroeste y norte
Temperatura 30°C
Humedad 35%
Presión 1017 hPa
Visibilidad 10 km o más
Escasas nubes a una altura de 5000 ft

METAR: LEZG 231300Z 31005KT 240V350 9999 FEW050 30/13 Q1017

Hora: 15:37 (13:37 UTC)

Pronóstico

El informe se hizo hace 2 horas y 37 minutos, a las 11:00 UTC
Pronóstico válido del 23 a las 12 UTC al 24 a las 12 UTC
Viento 10 kt del oeste-noroeste
Visibilidad 10 km o más
Escasas nubes a una altura de 4000 ft
Temporalmente
del 23 a las 14 UTC al 23 a las 23 UTC
Viento 18 kt del oeste-noroeste

TAF: LEZG 231100Z 2312/2412 30010KT 9999 FEW040 TX34/2314Z TN18/2406Z TEMPO 2314/2323 30018KT

Observaciones y pronósticos meteorológicos de más de 4000 aeropuertos (mensajes METAR y TAF).

Los puntos amarillos y rojos representan las estaciones disponibles.

Ponga el ratón en el punto deseado para ver el nombre de la estación.

Haga clic para ver las observaciones y los pronósticos meteorológicos.

Para cambiar el mapa : haga clic en los botones verdes con una cruz de color negro para hacer un zoom, en el botón verde con un guión para alejar o en las flechas verdes para mapas adyacentes.


METAR-TAF: